createdAt,value
2023-02-03T00:02:05.762Z,87.01
2023-02-03T00:04:32.643Z,87.55
2023-02-03T00:06:59.507Z,87.22
2023-02-03T00:09:26.281Z,86.81
2023-02-03T00:11:54.125Z,87.01
2023-02-03T00:14:20.894Z,86.65
2023-02-03T00:16:47.763Z,86.22
2023-02-03T00:19:16.524Z,86.52
2023-02-03T00:21:44.258Z,85.96
2023-02-03T00:24:11.655Z,86.35
2023-02-03T00:26:43.152Z,86.15
2023-02-03T00:29:09.935Z,85.89
2023-02-03T00:31:37.110Z,86.26
2023-02-03T00:34:03.929Z,85.88
2023-02-03T00:36:30.732Z,86.00
2023-02-03T00:38:57.668Z,85.41
2023-02-03T00:41:30.748Z,85.27
2023-02-03T00:43:57.922Z,84.93
2023-02-03T00:46:24.768Z,84.72
2023-02-03T00:48:51.613Z,84.67
2023-02-03T00:51:18.363Z,84.50
2023-02-03T00:53:45.099Z,84.26
2023-02-03T00:56:12.932Z,84.57
2023-02-03T00:58:42.742Z,84.51
2023-02-03T01:01:10.263Z,84.31
2023-02-03T01:03:37.264Z,84.27
2023-02-03T01:06:19.983Z,84.39
2023-02-03T01:08:47.752Z,84.61
2023-02-03T01:11:18.772Z,84.62
2023-02-03T01:13:45.764Z,84.92
2023-02-03T01:16:16.145Z,85.33
2023-02-03T01:18:43.568Z,85.35
2023-02-03T01:21:17.901Z,85.45
2023-02-03T01:23:45.897Z,85.33
2023-02-03T01:26:16.518Z,85.45
2023-02-03T01:28:43.784Z,85.92
2023-02-03T01:31:15.418Z,86.13
2023-02-03T01:33:46.309Z,86.40
2023-02-03T01:36:14.280Z,85.94
2023-02-03T01:38:41.579Z,85.93
2023-02-03T01:41:15.441Z,85.95
2023-02-03T01:43:47.218Z,85.62
2023-02-03T01:46:46.181Z,85.58
2023-02-03T01:49:32.224Z,85.68
2023-02-03T01:51:59.635Z,85.50
2023-02-03T01:54:41.238Z,85.70
2023-02-03T01:57:25.809Z,85.68
2023-02-03T01:59:55.805Z,85.88
2023-02-03T02:02:23.374Z,86.09
2023-02-03T02:05:11.776Z,85.44
2023-02-03T02:07:39.493Z,85.60
2023-02-03T02:10:06.900Z,85.77
2023-02-03T02:12:33.712Z,85.51
2023-02-03T02:15:00.906Z,85.90
2023-02-03T02:17:57.267Z,85.82
2023-02-03T02:20:56.109Z,85.67
2023-02-03T02:23:46.289Z,85.85
2023-02-03T02:26:15.841Z,85.82
2023-02-03T02:29:22.717Z,85.65
2023-02-03T02:32:21.009Z,86.03
2023-02-03T02:35:02.301Z,85.86
2023-02-03T02:37:34.961Z,86.03
2023-02-03T02:40:10.631Z,86.00
2023-02-03T02:42:51.574Z,85.98
2023-02-03T02:45:28.107Z,85.57
2023-02-03T02:48:06.293Z,85.36
2023-02-03T02:50:39.891Z,85.53
2023-02-03T02:53:08.905Z,85.87
2023-02-03T02:55:39.228Z,85.46
2023-02-03T02:58:11.644Z,85.88
2023-02-03T03:00:41.392Z,86.76
2023-02-03T03:03:20.504Z,86.83
2023-02-03T03:06:57.301Z,86.68
2023-02-03T03:09:41.799Z,86.56
2023-02-03T03:12:23.884Z,86.86
2023-02-03T03:15:04.848Z,86.65
2023-02-03T03:17:35.628Z,87.06
2023-02-03T03:20:10.539Z,86.80
2023-02-03T03:22:46.654Z,86.50
2023-02-03T03:25:18.305Z,86.88
2023-02-03T03:27:52.312Z,86.50
2023-02-03T03:30:25.943Z,87.49
2023-02-03T03:32:53.230Z,87.34
2023-02-03T03:35:20.044Z,86.88
2023-02-03T03:38:00.347Z,86.78
2023-02-03T03:40:39.061Z,86.52
2023-02-03T03:43:14.887Z,87.24
2023-02-03T03:45:56.216Z,87.78
2023-02-03T03:48:50.590Z,88.01
2023-02-03T03:51:27.489Z,88.58
2023-02-03T03:53:58.573Z,88.45
2023-02-03T03:56:32.564Z,88.47
2023-02-03T03:59:02.577Z,88.56
2023-02-03T04:01:30.415Z,89.09
2023-02-03T04:04:02.492Z,89.39
2023-02-03T04:06:29.295Z,89.50
2023-02-03T04:08:56.281Z,89.09
2023-02-03T04:11:41.612Z,88.71
2023-02-03T04:14:09.155Z,89.50
2023-02-03T04:16:35.941Z,89.66
2023-02-03T04:19:02.765Z,89.73
2023-02-03T04:21:29.528Z,89.83
2023-02-03T04:23:57.079Z,90.50
2023-02-03T04:26:24.196Z,89.88
2023-02-03T04:28:51.066Z,89.92
2023-02-03T04:31:18.120Z,89.92
2023-02-03T04:33:44.946Z,90.73
2023-02-03T04:36:11.713Z,90.80
2023-02-03T04:38:38.505Z,91.08
2023-02-03T04:41:05.358Z,90.85
2023-02-03T04:43:32.090Z,91.27
2023-02-03T04:46:01.136Z,90.95
2023-02-03T04:48:28.566Z,91.70
2023-02-03T04:50:55.434Z,91.43
2023-02-03T04:53:22.202Z,91.39
2023-02-03T04:55:49.049Z,91.13
2023-02-03T04:58:15.831Z,91.41
2023-02-03T05:00:42.638Z,91.86
2023-02-03T05:03:09.425Z,91.77
2023-02-03T05:05:36.220Z,92.10
2023-02-03T05:08:02.955Z,92.08
2023-02-03T05:10:29.861Z,91.95
2023-02-03T05:12:56.756Z,92.50
2023-02-03T05:15:23.703Z,92.64
2023-02-03T05:17:55.774Z,92.51
2023-02-03T05:20:22.591Z,92.11
2023-02-03T05:22:49.344Z,92.08
2023-02-03T05:25:16.490Z,92.25
2023-02-03T05:27:43.782Z,92.48
2023-02-03T05:30:11.557Z,92.81
2023-02-03T05:32:38.360Z,93.07
2023-02-03T05:35:05.500Z,93.15
2023-02-03T05:37:32.313Z,93.52
2023-02-03T05:40:19.014Z,93.34
2023-02-03T05:42:49.707Z,93.42
2023-02-03T05:45:17.481Z,93.52
2023-02-03T05:47:44.288Z,92.54
2023-02-03T05:50:11.200Z,92.33
2023-02-03T05:52:38.039Z,92.62
2023-02-03T05:55:05.518Z,92.31
2023-02-03T05:57:32.501Z,92.66
2023-02-03T05:59:59.274Z,92.52
2023-02-03T06:02:26.033Z,92.43
2023-02-03T06:04:52.809Z,92.07
2023-02-03T06:07:19.565Z,91.84
2023-02-03T06:09:46.341Z,91.88
2023-02-03T06:12:13.094Z,91.89
2023-02-03T06:14:40.013Z,91.39
2023-02-03T06:17:06.772Z,91.37
2023-02-03T06:19:33.614Z,90.92
2023-02-03T06:22:00.362Z,91.05
2023-02-03T06:24:27.172Z,91.52
2023-02-03T06:26:53.916Z,91.40
2023-02-03T06:29:20.653Z,91.27
2023-02-03T06:31:47.535Z,91.50
2023-02-03T06:34:14.434Z,90.99
2023-02-03T06:36:41.177Z,91.69
2023-02-03T06:39:07.893Z,91.24
2023-02-03T06:41:34.629Z,90.88
2023-02-03T06:44:01.414Z,91.13
2023-02-03T06:46:30.282Z,91.29
2023-02-03T06:48:57.116Z,91.29
2023-02-03T06:51:25.001Z,91.28
2023-02-03T06:53:52.124Z,91.05
2023-02-03T06:56:19.069Z,90.91
2023-02-03T06:58:45.899Z,90.82
2023-02-03T07:01:12.696Z,91.41
2023-02-03T07:03:39.483Z,91.03
2023-02-03T07:06:06.836Z,91.85
2023-02-03T07:08:33.650Z,92.21
2023-02-03T07:11:00.398Z,92.02
2023-02-03T07:13:27.179Z,92.49
2023-02-03T07:15:53.965Z,92.74
2023-02-03T07:18:45.941Z,92.64
2023-02-03T07:21:11.993Z,92.95
2023-02-03T07:23:38.793Z,93.03
2023-02-03T07:26:07.437Z,92.86
2023-02-03T07:28:35.625Z,92.77
2023-02-03T07:31:08.385Z,93.00
2023-02-03T07:33:35.141Z,93.86
2023-02-03T07:36:03.535Z,93.34
2023-02-03T07:38:30.484Z,94.01
2023-02-03T07:40:57.572Z,94.32
2023-02-03T07:43:24.627Z,94.17
2023-02-03T07:45:51.382Z,94.16
2023-02-03T07:48:18.177Z,94.31
2023-02-03T07:50:45.926Z,94.10
2023-02-03T07:53:12.753Z,93.77
2023-02-03T07:55:40.279Z,93.94
2023-02-03T07:58:07.212Z,94.37
2023-02-03T08:00:34.803Z,93.67
2023-02-03T08:03:01.756Z,94.04
2023-02-03T08:05:30.374Z,93.93
2023-02-03T08:07:57.897Z,94.60
2023-02-03T08:10:24.649Z,93.67
2023-02-03T08:12:55.969Z,93.94
2023-02-03T08:15:22.882Z,93.43
2023-02-03T08:17:50.509Z,93.47
2023-02-03T08:20:18.179Z,93.59
2023-02-03T08:22:45.089Z,93.49
2023-02-03T08:25:12.269Z,93.05
2023-02-03T08:27:39.717Z,92.98
2023-02-03T08:30:09.066Z,92.91
2023-02-03T08:32:35.984Z,92.93
2023-02-03T08:35:03.156Z,92.68
2023-02-03T08:37:32.721Z,92.31
2023-02-03T08:40:00.205Z,92.17
2023-02-03T08:42:27.458Z,92.63
2023-02-03T08:44:54.347Z,91.85
2023-02-03T08:47:22.422Z,92.08
2023-02-03T08:49:49.197Z,91.22
2023-02-03T08:52:18.953Z,91.06
2023-02-03T08:54:47.182Z,91.33
2023-02-03T08:57:14.588Z,90.96
2023-02-03T08:59:43.533Z,91.21
2023-02-03T09:02:17.885Z,91.36
2023-02-03T09:04:46.194Z,90.58
2023-02-03T09:07:13.976Z,90.71
2023-02-03T09:09:40.879Z,90.74
2023-02-03T09:12:08.415Z,90.09
2023-02-03T09:14:35.686Z,89.96
2023-02-03T09:17:04.475Z,89.81
2023-02-03T09:19:34.239Z,90.22
2023-02-03T09:22:02.422Z,89.22
2023-02-03T09:24:29.472Z,87.98
2023-02-03T09:26:57.378Z,88.41
2023-02-03T09:29:24.246Z,89.45
2023-02-03T09:31:54.315Z,88.51
2023-02-03T09:34:21.877Z,88.95
2023-02-03T09:36:49.256Z,88.58
2023-02-03T09:39:16.203Z,89.53
2023-02-03T09:42:02.778Z,89.63
2023-02-03T09:44:38.709Z,87.87
2023-02-03T09:47:22.600Z,88.89
2023-02-03T09:49:59.592Z,87.94
2023-02-03T09:52:32.177Z,88.32
2023-02-03T09:55:34.639Z,87.52
2023-02-03T09:58:15.514Z,88.23
2023-02-03T10:01:02.076Z,87.04
2023-02-03T10:03:57.609Z,87.68
2023-02-03T10:06:36.983Z,87.04
2023-02-03T10:09:39.907Z,87.12
2023-02-03T10:12:12.228Z,88.02
2023-02-03T10:14:47.616Z,87.00
2023-02-03T10:17:30.724Z,86.71
2023-02-03T10:20:09.879Z,87.18
2023-02-03T10:22:44.992Z,86.83
2023-02-03T10:25:14.728Z,86.36
2023-02-03T10:27:44.040Z,86.13
2023-02-03T10:30:24.047Z,84.31
2023-02-03T10:33:14.088Z,84.82
2023-02-03T10:36:19.610Z,83.33
2023-02-03T10:39:07.792Z,82.85
2023-02-03T10:41:35.139Z,84.03
2023-02-03T10:44:06.608Z,83.93
2023-02-03T10:46:40.150Z,83.25
2023-02-03T10:49:06.892Z,82.00
2023-02-03T10:51:43.483Z,82.00
2023-02-03T10:54:33.183Z,81.58
2023-02-03T10:57:12.198Z,82.66
2023-02-03T10:59:44.097Z,82.43
2023-02-03T11:02:26.239Z,80.50
2023-02-03T11:05:24.987Z,80.79
2023-02-03T11:07:53.894Z,81.09
2023-02-03T11:10:38.848Z,80.83
2023-02-03T11:13:26.317Z,80.74
2023-02-03T11:16:15.701Z,81.00
2023-02-03T11:18:46.808Z,79.45
2023-02-03T11:21:24.249Z,80.76
2023-02-03T11:24:00.858Z,79.68
2023-02-03T11:26:34.563Z,80.01
2023-02-03T11:29:03.326Z,79.66
2023-02-03T11:31:35.028Z,80.52
2023-02-03T11:34:16.138Z,79.17
2023-02-03T11:36:42.988Z,78.16
2023-02-03T11:39:18.064Z,77.36
2023-02-03T11:41:45.960Z,77.45
2023-02-03T11:44:26.326Z,75.79
2023-02-03T11:47:04.580Z,77.02
2023-02-03T11:50:21.179Z,76.44
2023-02-03T11:53:24.158Z,76.61
2023-02-03T11:56:33.044Z,75.18
2023-02-03T11:59:38.131Z,75.21
2023-02-03T12:03:00.072Z,71.72
2023-02-03T12:05:35.059Z,73.15
2023-02-03T12:08:35.832Z,72.42
2023-02-03T12:11:31.654Z,72.34
2023-02-03T12:14:28.939Z,72.91
2023-02-03T12:17:30.565Z,72.00
2023-02-03T12:20:37.171Z,72.56
2023-02-03T12:23:47.036Z,71.19
2023-02-03T12:26:35.116Z,71.92
2023-02-03T12:29:15.117Z,70.35
2023-02-03T12:31:59.438Z,71.12
2023-02-03T12:34:36.670Z,71.56
2023-02-03T12:37:17.761Z,70.77
2023-02-03T12:39:59.202Z,71.52
2023-02-03T12:42:35.809Z,71.12
2023-02-03T12:45:14.954Z,70.94
2023-02-03T12:48:05.445Z,70.99
2023-02-03T12:51:00.028Z,70.89
2023-02-03T12:53:35.605Z,71.26
2023-02-03T12:56:13.436Z,71.46
2023-02-03T12:58:55.858Z,70.72
2023-02-03T13:01:25.671Z,71.23
2023-02-03T13:04:17.716Z,71.83
2023-02-03T13:07:04.993Z,70.41
2023-02-03T13:09:58.676Z,71.04
2023-02-03T13:12:43.392Z,70.19
2023-02-03T13:15:22.986Z,71.29
2023-02-03T13:17:56.339Z,71.04
2023-02-03T13:20:31.532Z,71.17
2023-02-03T13:22:58.811Z,71.14
2023-02-03T13:25:32.646Z,71.55
2023-02-03T13:28:43.792Z,71.30
2023-02-03T13:31:37.872Z,71.35
2023-02-03T13:34:37.050Z,71.33
2023-02-03T13:37:49.709Z,72.14
2023-02-03T13:40:43.480Z,72.51
2023-02-03T13:43:35.807Z,71.68
2023-02-03T13:46:07.956Z,71.77
2023-02-03T13:48:35.905Z,71.18
2023-02-03T13:51:37.793Z,71.44
2023-02-03T13:54:17.562Z,72.39
2023-02-03T13:57:02.443Z,71.40
2023-02-03T13:59:38.799Z,72.15
2023-02-03T14:02:24.052Z,71.23
2023-02-03T14:04:59.111Z,71.74
2023-02-03T14:07:39.122Z,72.50
2023-02-03T14:10:20.976Z,72.84
2023-02-03T14:12:50.889Z,72.88
2023-02-03T14:15:28.386Z,73.53
2023-02-03T14:18:17.905Z,72.42
2023-02-03T14:20:51.317Z,73.82
2023-02-03T14:23:26.536Z,73.05
2023-02-03T14:25:59.608Z,74.39
2023-02-03T14:28:42.365Z,74.31
2023-02-03T14:31:23.858Z,74.39
2023-02-03T14:33:54.758Z,73.53
2023-02-03T14:36:38.142Z,74.27
2023-02-03T14:39:21.313Z,74.18
2023-02-03T14:41:47.877Z,74.42
2023-02-03T14:44:32.647Z,74.02
2023-02-03T14:47:12.811Z,74.03
2023-02-03T14:50:13.123Z,73.39
2023-02-03T14:53:10.545Z,73.94
2023-02-03T14:56:04.334Z,73.41
2023-02-03T14:58:51.068Z,73.88
2023-02-03T15:01:36.168Z,73.41
2023-02-03T15:04:12.077Z,73.69
2023-02-03T15:06:45.743Z,74.15
2023-02-03T15:09:33.287Z,74.15
2023-02-03T15:12:00.160Z,74.14
2023-02-03T15:14:31.482Z,74.04
2023-02-03T15:17:04.527Z,74.58
2023-02-03T15:19:35.816Z,74.00
2023-02-03T15:22:02.942Z,73.51
2023-02-03T15:24:37.075Z,74.30
2023-02-03T15:27:04.001Z,74.65
2023-02-03T15:29:36.278Z,74.50
2023-02-03T15:32:28.619Z,74.95
2023-02-03T15:34:57.194Z,74.98
2023-02-03T15:37:47.978Z,74.81
2023-02-03T15:40:23.956Z,75.43
2023-02-03T15:43:04.053Z,76.11
2023-02-03T15:45:55.887Z,75.94
2023-02-03T15:48:37.076Z,75.76
2023-02-03T15:51:17.529Z,76.20
2023-02-03T15:53:57.980Z,75.51
2023-02-03T15:56:41.139Z,75.44
2023-02-03T15:59:27.028Z,75.88
2023-02-03T16:01:54.378Z,76.70
2023-02-03T16:04:22.388Z,76.54
2023-02-03T16:06:50.870Z,76.98
2023-02-03T16:09:26.290Z,77.38
2023-02-03T16:12:16.914Z,77.30
2023-02-03T16:14:45.105Z,77.33
2023-02-03T16:17:32.609Z,77.49
2023-02-03T16:20:32.335Z,77.65
2023-02-03T16:23:04.527Z,77.94
2023-02-03T16:25:35.824Z,77.89
2023-02-03T16:28:36.954Z,78.65
2023-02-03T16:31:42.506Z,78.19
2023-02-03T16:34:37.692Z,78.31
2023-02-03T16:37:45.478Z,78.05
2023-02-03T16:40:36.075Z,78.12
2023-02-03T16:43:22.945Z,78.26
2023-02-03T16:46:19.071Z,78.67
2023-02-03T16:49:04.956Z,78.86
2023-02-03T16:51:40.798Z,79.32
2023-02-03T16:54:13.137Z,79.51
2023-02-03T16:56:40.256Z,79.52
2023-02-03T16:59:07.319Z,79.60
2023-02-03T17:01:34.082Z,79.35
2023-02-03T17:04:00.871Z,79.33
2023-02-03T17:06:28.016Z,79.55
2023-02-03T17:08:56.648Z,79.76
2023-02-03T17:11:24.622Z,79.75
2023-02-03T17:13:52.196Z,79.66
2023-02-03T17:16:25.872Z,79.91
2023-02-03T17:18:53.603Z,79.94
2023-02-03T17:21:27.000Z,79.87
2023-02-03T17:23:54.190Z,80.03
2023-02-03T17:26:21.368Z,79.64
2023-02-03T17:28:48.110Z,79.74
2023-02-03T17:31:18.782Z,80.41
2023-02-03T17:33:46.878Z,79.92
2023-02-03T17:36:17.031Z,80.31
2023-02-03T17:54:54.327Z,80.48
2023-02-03T17:57:21.273Z,80.73
2023-02-03T17:59:48.078Z,81.29
2023-02-03T18:02:14.816Z,81.05
2023-02-03T18:04:42.340Z,81.25
2023-02-03T18:07:09.077Z,81.06
2023-02-03T18:09:35.833Z,80.57
2023-02-03T18:12:02.688Z,81.08
2023-02-03T18:14:29.579Z,81.19
2023-02-03T18:16:56.380Z,80.97
2023-02-03T18:19:23.198Z,81.17
2023-02-03T18:21:49.968Z,80.76
2023-02-03T18:24:18.669Z,80.96
2023-02-03T18:26:50.241Z,80.97
2023-02-03T18:29:17.419Z,81.44
2023-02-03T18:31:44.401Z,81.70
2023-02-03T18:34:11.800Z,81.78
2023-02-03T18:39:06.252Z,81.89
2023-02-03T18:41:33.084Z,82.41
2023-02-03T18:43:59.891Z,82.77
2023-02-03T18:46:32.260Z,82.78
2023-02-03T18:48:59.310Z,82.62
2023-02-03T18:51:26.773Z,82.90
2023-02-03T18:53:58.742Z,82.64
2023-02-03T18:56:35.275Z,83.11
2023-02-03T18:59:09.910Z,82.08
2023-02-03T19:01:38.896Z,82.42
2023-02-03T19:04:06.318Z,82.84
2023-02-03T19:06:34.782Z,83.00
2023-02-03T19:09:02.488Z,82.68
2023-02-03T19:11:29.253Z,82.85
2023-02-03T19:13:56.269Z,82.75
2023-02-03T19:16:23.161Z,83.01
2023-02-03T19:18:49.929Z,83.18
2023-02-03T19:21:17.556Z,83.71
2023-02-03T19:23:44.399Z,83.45
2023-02-03T19:26:12.228Z,84.28
2023-02-03T19:28:40.622Z,85.30
2023-02-03T19:31:16.725Z,84.62
2023-02-03T19:33:43.946Z,85.37
2023-02-03T19:36:11.530Z,86.74
2023-02-03T19:38:38.882Z,86.72
2023-02-03T19:41:07.236Z,86.52
2023-02-03T19:43:34.054Z,87.53
2023-02-03T19:46:00.991Z,87.30
2023-02-03T19:48:27.910Z,87.81
2023-02-03T19:50:54.628Z,88.38
2023-02-03T19:53:21.785Z,89.17
2023-02-03T19:55:48.859Z,89.63
2023-02-03T19:58:16.021Z,89.79
2023-02-03T20:00:43.499Z,90.00
2023-02-03T20:03:10.812Z,90.36
2023-02-03T20:05:38.159Z,90.88
2023-02-03T20:08:05.730Z,90.71
2023-02-03T20:10:33.140Z,91.03
2023-02-03T20:13:00.697Z,90.81
2023-02-03T20:15:27.597Z,91.71
2023-02-03T20:17:54.691Z,91.49
2023-02-03T20:20:21.729Z,92.16
2023-02-03T20:22:49.149Z,93.34
2023-02-03T20:25:16.608Z,93.63
2023-02-03T20:27:43.464Z,94.05
2023-02-03T20:30:11.690Z,94.40
2023-02-03T20:32:39.268Z,93.77
2023-02-03T20:35:07.398Z,94.07
2023-02-03T20:37:36.386Z,94.34
2023-02-03T20:40:13.112Z,94.69
2023-02-03T20:42:40.233Z,94.38
2023-02-03T20:45:16.575Z,94.97
2023-02-03T20:47:44.419Z,95.71
2023-02-03T20:50:18.376Z,96.29
2023-02-03T20:52:46.775Z,96.36
2023-02-03T20:55:19.743Z,97.63
2023-02-03T20:57:50.331Z,97.33
2023-02-03T21:00:20.559Z,98.23
2023-02-03T21:03:06.488Z,97.99
2023-02-03T21:05:38.606Z,98.59
2023-02-03T21:08:15.056Z,99.00
2023-02-03T21:10:43.520Z,98.97
2023-02-03T21:13:29.410Z,98.88
2023-02-03T21:16:00.113Z,98.32
2023-02-03T21:18:47.149Z,98.42
2023-02-03T21:21:24.926Z,98.91
2023-02-03T21:23:52.823Z,99.24
2023-02-03T21:26:27.069Z,98.67
2023-02-03T21:29:01.950Z,99.20
2023-02-03T21:31:32.179Z,99.07
2023-02-03T21:34:04.848Z,98.91
2023-02-03T21:36:35.660Z,99.15
2023-02-03T21:39:03.300Z,99.20
2023-02-03T21:41:33.566Z,99.53
2023-02-03T21:44:01.040Z,100.00
2023-02-03T21:46:32.937Z,99.62
2023-02-03T21:49:04.258Z,99.89
2023-02-03T21:51:36.237Z,100.00
2023-02-03T21:54:27.489Z,100.00
2023-02-03T21:56:54.717Z,99.31
2023-02-03T21:59:29.722Z,99.38
2023-02-03T22:02:00.312Z,100.00
2023-02-03T22:04:29.048Z,100.00
2023-02-03T22:06:56.371Z,99.80
2023-02-03T22:09:27.322Z,98.96
2023-02-03T22:11:54.268Z,98.49
2023-02-03T22:14:21.254Z,99.21
2023-02-03T22:16:48.387Z,99.07
2023-02-03T22:19:17.783Z,98.91
2023-02-03T22:21:45.076Z,98.74
2023-02-03T22:24:12.213Z,99.08
2023-02-03T22:26:38.984Z,99.41
2023-02-03T22:29:05.898Z,98.39
2023-02-03T22:31:33.006Z,99.25
2023-02-03T22:33:59.854Z,98.92
2023-02-03T22:36:26.690Z,98.96
2023-02-03T22:38:53.488Z,99.63
2023-02-03T22:41:21.069Z,98.96
2023-02-03T22:43:48.207Z,99.87
2023-02-03T22:46:15.172Z,99.66
2023-02-03T22:48:42.027Z,99.15
2023-02-03T22:51:08.878Z,99.19
2023-02-03T22:53:35.881Z,98.76
2023-02-03T22:56:02.862Z,98.99
2023-02-03T22:58:29.637Z,98.93
2023-02-03T23:00:56.418Z,98.75
2023-02-03T23:03:23.290Z,99.31
2023-02-03T23:05:50.177Z,98.93
2023-02-03T23:08:16.949Z,98.23
2023-02-03T23:10:43.692Z,98.72
2023-02-03T23:13:10.512Z,99.08
2023-02-03T23:15:37.327Z,98.72
2023-02-03T23:18:04.220Z,99.30
2023-02-03T23:20:31.282Z,99.06
2023-02-03T23:22:58.321Z,99.58
2023-02-03T23:25:25.145Z,98.74
2023-02-03T23:27:52.002Z,98.63
2023-02-03T23:30:19.293Z,98.38
2023-02-03T23:32:46.021Z,98.60
2023-02-03T23:35:31.722Z,98.84
2023-02-03T23:37:58.420Z,98.63
2023-02-03T23:40:25.217Z,98.67
2023-02-03T23:42:52.013Z,99.04
2023-02-03T23:45:18.916Z,98.85
2023-02-03T23:47:46.674Z,98.82
2023-02-03T23:50:17.213Z,98.86
2023-02-03T23:52:43.994Z,98.87
2023-02-03T23:55:17.804Z,99.08
2023-02-03T23:57:45.530Z,99.55
